sensor_id;sensor_type;location;lat;lon;timestamp;temperature;humidity
1570;DHT22;778;50.120;8.698;2022-10-22T03:02:24;15.20;99.90
1570;DHT22;778;50.120;8.698;2022-10-22T03:04:52;15.20;99.90
1570;DHT22;778;50.120;8.698;2022-10-22T03:07:21;15.20;99.90
1570;DHT22;778;50.120;8.698;2022-10-22T03:09:49;15.10;99.90
1570;DHT22;778;50.120;8.698;2022-10-22T03:12:17;15.20;99.90
1570;DHT22;778;50.120;8.698;2022-10-22T03:14:46;15.20;99.90
1570;DHT22;778;50.120;8.698;2022-10-22T03:17:14;15.20;99.90
1570;DHT22;778;50.120;8.698;2022-10-22T03:19:44;15.20;99.90
1570;DHT22;778;50.120;8.698;2022-10-22T03:22:16;15.30;99.90
1570;DHT22;778;50.120;8.698;2022-10-22T03:24:47;15.20;99.90
1570;DHT22;778;50.120;8.698;2022-10-22T03:27:19;15.20;99.90
1570;DHT22;778;50.120;8.698;2022-10-22T03:29:50;15.20;99.90
1570;DHT22;778;50.120;8.698;2022-10-22T03:32:19;15.20;99.90
1570;DHT22;778;50.120;8.698;2022-10-22T03:34:49;15.10;99.90
1570;DHT22;778;50.120;8.698;2022-10-22T03:37:17;15.10;99.90
1570;DHT22;778;50.120;8.698;2022-10-22T03:39:46;15.20;99.90
1570;DHT22;778;50.120;8.698;2022-10-22T03:42:15;15.20;99.90
1570;DHT22;778;50.120;8.698;2022-10-22T03:44:43;15.20;99.90
1570;DHT22;778;50.120;8.698;2022-10-22T03:47:12;15.20;99.90
1570;DHT22;778;50.120;8.698;2022-10-22T03:49:40;15.20;99.90
1570;DHT22;778;50.120;8.698;2022-10-22T03:52:12;15.10;99.90
1570;DHT22;778;50.120;8.698;2022-10-22T03:54:42;15.10;99.90
1570;DHT22;778;50.120;8.698;2022-10-22T03:57:11;15.10;99.90
1570;DHT22;778;50.120;8.698;2022-10-22T03:59:41;15.10;99.90
1570;DHT22;778;50.120;8.698;2022-10-22T04:02:11;15.00;99.90
1570;DHT22;778;50.120;8.698;2022-10-22T04:04:40;15.00;99.90
1570;DHT22;778;50.120;8.698;2022-10-22T04:07:10;15.00;99.90
1570;DHT22;778;50.120;8.698;2022-10-22T04:09:38;15.00;99.90
1570;DHT22;778;50.120;8.698;2022-10-22T04:12:07;15.00;99.90
1570;DHT22;778;50.120;8.698;2022-10-22T04:14:36;15.10;99.90
1570;DHT22;778;50.120;8.698;2022-10-22T04:17:04;15.00;99.90
1570;DHT22;778;50.120;8.698;2022-10-22T04:19:32;15.10;99.90
1570;DHT22;778;50.120;8.698;2022-10-22T04:22:01;15.10;99.90
1570;DHT22;778;50.120;8.698;2022-10-22T04:24:31;15.10;99.90
1570;DHT22;778;50.120;8.698;2022-10-22T04:26:59;15.10;99.90
1570;DHT22;778;50.120;8.698;2022-10-22T04:29:28;15.10;99.90
1570;DHT22;778;50.120;8.698;2022-10-22T04:31:56;15.20;99.90
1570;DHT22;778;50.120;8.698;2022-10-22T04:34:26;15.20;99.90
1570;DHT22;778;50.120;8.698;2022-10-22T04:36:55;15.20;99.90
1570;DHT22;778;50.120;8.698;2022-10-22T04:39:24;15.20;99.90
1570;DHT22;778;50.120;8.698;2022-10-22T04:41:53;15.20;99.90
1570;DHT22;778;50.120;8.698;2022-10-22T04:44:22;15.20;99.90
1570;DHT22;778;50.120;8.698;2022-10-22T04:46:50;15.20;99.90
1570;DHT22;778;50.120;8.698;2022-10-22T04:49:19;15.20;99.90
1570;DHT22;778;50.120;8.698;2022-10-22T04:51:47;15.20;99.90
1570;DHT22;778;50.120;8.698;2022-10-22T04:54:15;15.20;99.90
1570;DHT22;778;50.120;8.698;2022-10-22T04:56:44;15.20;99.90
1570;DHT22;778;50.120;8.698;2022-10-22T04:59:14;15.20;99.90
1570;DHT22;778;50.120;8.698;2022-10-22T05:01:43;15.20;99.90
1570;DHT22;778;50.120;8.698;2022-10-22T05:04:14;15.20;99.90
1570;DHT22;778;50.120;8.698;2022-10-22T05:06:43;15.20;99.90
1570;DHT22;778;50.120;8.698;2022-10-22T05:09:13;15.20;99.90
1570;DHT22;778;50.120;8.698;2022-10-22T05:11:44;15.20;99.90
1570;DHT22;778;50.120;8.698;2022-10-22T05:14:17;15.20;99.90
1570;DHT22;778;50.120;8.698;2022-10-22T05:16:47;15.10;99.90
1570;DHT22;778;50.120;8.698;2022-10-22T05:19:19;15.10;99.90
1570;DHT22;778;50.120;8.698;2022-10-22T05:21:50;15.10;99.90
1570;DHT22;778;50.120;8.698;2022-10-22T05:24:18;15.10;99.90
1570;DHT22;778;50.120;8.698;2022-10-22T05:26:48;15.10;99.90
1570;DHT22;778;50.120;8.698;2022-10-22T05:29:18;15.20;99.90
1570;DHT22;778;50.120;8.698;2022-10-22T05:31:47;15.20;99.90
1570;DHT22;778;50.120;8.698;2022-10-22T05:34:16;15.10;99.90
1570;DHT22;778;50.120;8.698;2022-10-22T05:36:44;15.10;99.90
1570;DHT22;778;50.120;8.698;2022-10-22T05:39:13;15.10;99.90
1570;DHT22;778;50.120;8.698;2022-10-22T05:41:41;15.10;99.90
1570;DHT22;778;50.120;8.698;2022-10-22T05:44:11;15.10;99.90
1570;DHT22;778;50.120;8.698;2022-10-22T05:46:41;15.10;99.90
1570;DHT22;778;50.120;8.698;2022-10-22T05:49:15;15.10;99.90
1570;DHT22;778;50.120;8.698;2022-10-22T05:51:43;15.20;99.90
1570;DHT22;778;50.120;8.698;2022-10-22T05:54:16;15.20;99.90
1570;DHT22;778;50.120;8.698;2022-10-22T05:56:46;15.10;99.90
1570;DHT22;778;50.120;8.698;2022-10-22T05:59:14;15.20;99.90
1570;DHT22;778;50.120;8.698;2022-10-22T06:01:44;15.10;99.90
1570;DHT22;778;50.120;8.698;2022-10-22T06:04:12;15.10;99.90
1570;DHT22;778;50.120;8.698;2022-10-22T06:06:43;15.10;99.90
1570;DHT22;778;50.120;8.698;2022-10-22T06:09:16;15.10;99.90
1570;DHT22;778;50.120;8.698;2022-10-22T06:11:46;15.10;99.90
1570;DHT22;778;50.120;8.698;2022-10-22T06:14:15;15.10;99.90
1570;DHT22;778;50.120;8.698;2022-10-22T06:16:46;15.10;99.90
1570;DHT22;778;50.120;8.698;2022-10-22T06:19:16;15.10;99.90
1570;DHT22;778;50.120;8.698;2022-10-22T06:21:46;15.10;99.90
1570;DHT22;778;50.120;8.698;2022-10-22T06:24:14;15.10;99.90
1570;DHT22;778;50.120;8.698;2022-10-22T06:26:43;15.10;99.90
1570;DHT22;778;50.120;8.698;2022-10-22T06:29:11;15.10;99.90
1570;DHT22;778;50.120;8.698;2022-10-22T06:31:40;15.10;99.90
1570;DHT22;778;50.120;8.698;2022-10-22T06:34:12;15.00;99.90
1570;DHT22;778;50.120;8.698;2022-10-22T06:36:43;15.00;99.90
1570;DHT22;778;50.120;8.698;2022-10-22T06:39:13;15.00;99.90
1570;DHT22;778;50.120;8.698;2022-10-22T06:41:42;15.00;99.90
1570;DHT22;778;50.120;8.698;2022-10-22T06:44:13;15.00;99.90
1570;DHT22;778;50.120;8.698;2022-10-22T06:46:43;14.90;99.90
1570;DHT22;778;50.120;8.698;2022-10-22T06:49:13;14.90;99.90
1570;DHT22;778;50.120;8.698;2022-10-22T06:51:43;15.00;99.90
1570;DHT22;778;50.120;8.698;2022-10-22T06:54:12;15.00;99.90
1570;DHT22;778;50.120;8.698;2022-10-22T06:56:41;15.00;99.90
1570;DHT22;778;50.120;8.698;2022-10-22T06:59:09;15.00;99.90
1570;DHT22;778;50.120;8.698;2022-10-22T07:01:38;15.00;99.90
1570;DHT22;778;50.120;8.698;2022-10-22T07:04:07;15.00;99.90
1570;DHT22;778;50.120;8.698;2022-10-22T07:06:38;15.00;99.90
1570;DHT22;778;50.120;8.698;2022-10-22T07:09:06;15.00;99.90
1570;DHT22;778;50.120;8.698;2022-10-22T07:11:39;15.00;99.90
1570;DHT22;778;50.120;8.698;2022-10-22T07:14:09;15.00;99.90
1570;DHT22;778;50.120;8.698;2022-10-22T07:16:38;15.00;99.90
1570;DHT22;778;50.120;8.698;2022-10-22T07:19:08;14.90;99.90
1570;DHT22;778;50.120;8.698;2022-10-22T07:21:39;14.90;99.90
1570;DHT22;778;50.120;8.698;2022-10-22T07:24:08;14.90;99.90
1570;DHT22;778;50.120;8.698;2022-10-22T07:26:36;14.90;99.90
1570;DHT22;778;50.120;8.698;2022-10-22T07:29:05;14.90;99.90
1570;DHT22;778;50.120;8.698;2022-10-22T07:31:33;14.80;99.90
1570;DHT22;778;50.120;8.698;2022-10-22T07:34:02;14.90;99.90
1570;DHT22;778;50.120;8.698;2022-10-22T07:36:33;14.90;99.90
1570;DHT22;778;50.120;8.698;2022-10-22T07:39:03;14.90;99.90
1570;DHT22;778;50.120;8.698;2022-10-22T07:41:32;14.90;99.90
1570;DHT22;778;50.120;8.698;2022-10-22T07:44:00;15.00;99.90
1570;DHT22;778;50.120;8.698;2022-10-22T07:46:29;15.00;99.90
1570;DHT22;778;50.120;8.698;2022-10-22T07:48:57;15.00;99.90
1570;DHT22;778;50.120;8.698;2022-10-22T07:51:27;15.10;99.90
1570;DHT22;778;50.120;8.698;2022-10-22T07:53:55;15.10;99.90
1570;DHT22;778;50.120;8.698;2022-10-22T07:56:25;15.10;99.90
1570;DHT22;778;50.120;8.698;2022-10-22T07:58:53;15.20;99.90
1570;DHT22;778;50.120;8.698;2022-10-22T08:01:22;15.20;99.90
1570;DHT22;778;50.120;8.698;2022-10-22T08:03:50;15.30;99.90
1570;DHT22;778;50.120;8.698;2022-10-22T08:06:18;15.30;99.90
1570;DHT22;778;50.120;8.698;2022-10-22T08:08:47;15.40;99.90
1570;DHT22;778;50.120;8.698;2022-10-22T08:11:16;15.50;99.90
1570;DHT22;778;50.120;8.698;2022-10-22T08:13:46;15.50;99.90
1570;DHT22;778;50.120;8.698;2022-10-22T08:16:14;15.60;99.90
1570;DHT22;778;50.120;8.698;2022-10-22T08:18:43;15.80;99.90
1570;DHT22;778;50.120;8.698;2022-10-22T08:21:13;15.80;99.90
1570;DHT22;778;50.120;8.698;2022-10-22T08:23:43;15.90;99.90
1570;DHT22;778;50.120;8.698;2022-10-22T08:26:11;16.00;99.90
1570;DHT22;778;50.120;8.698;2022-10-22T08:28:39;16.20;99.90
1570;DHT22;778;50.120;8.698;2022-10-22T08:31:09;16.20;99.90
1570;DHT22;778;50.120;8.698;2022-10-22T08:33:38;16.30;99.90
1570;DHT22;778;50.120;8.698;2022-10-22T08:36:08;16.50;99.90
1570;DHT22;778;50.120;8.698;2022-10-22T08:38:36;16.80;99.90
1570;DHT22;778;50.120;8.698;2022-10-22T08:41:08;17.10;99.90
1570;DHT22;778;50.120;8.698;2022-10-22T08:44:05;17.20;99.90
1570;DHT22;778;50.120;8.698;2022-10-22T08:47:02;17.30;99.90
1570;DHT22;778;50.120;8.698;2022-10-22T08:49:39;17.90;99.90
1570;DHT22;778;50.120;8.698;2022-10-22T08:52:12;18.50;99.90
1570;DHT22;778;50.120;8.698;2022-10-22T08:54:48;18.90;99.90
1570;DHT22;778;50.120;8.698;2022-10-22T09:00:20;19.30;99.90
1570;DHT22;778;50.120;8.698;2022-10-22T09:03:04;19.60;99.90
1570;DHT22;778;50.120;8.698;2022-10-22T09:05:49;19.90;99.90
1570;DHT22;778;50.120;8.698;2022-10-22T09:08:22;20.30;99.90
1570;DHT22;778;50.120;8.698;2022-10-22T09:10:53;20.30;99.90
1570;DHT22;778;50.120;8.698;2022-10-22T09:13:24;20.50;99.90
1570;DHT22;778;50.120;8.698;2022-10-22T09:15:56;20.70;99.90
1570;DHT22;778;50.120;8.698;2022-10-22T09:18:35;21.00;99.90
1570;DHT22;778;50.120;8.698;2022-10-22T09:21:15;21.10;99.90
1570;DHT22;778;50.120;8.698;2022-10-22T09:23:58;21.40;99.90
1570;DHT22;778;50.120;8.698;2022-10-22T09:26:35;21.60;99.90
1570;DHT22;778;50.120;8.698;2022-10-22T09:29:05;21.60;99.90
1570;DHT22;778;50.120;8.698;2022-10-22T09:31:34;21.70;99.90
1570;DHT22;778;50.120;8.698;2022-10-22T09:34:04;21.80;99.90
1570;DHT22;778;50.120;8.698;2022-10-22T09:36:34;21.50;99.90
1570;DHT22;778;50.120;8.698;2022-10-22T09:39:02;21.30;99.90
1570;DHT22;778;50.120;8.698;2022-10-22T09:41:31;21.40;99.90
1570;DHT22;778;50.120;8.698;2022-10-22T09:43:59;21.70;99.90
1570;DHT22;778;50.120;8.698;2022-10-22T09:46:29;21.70;99.90
1570;DHT22;778;50.120;8.698;2022-10-22T09:49:13;21.90;99.90
1570;DHT22;778;50.120;8.698;2022-10-22T09:51:53;22.00;99.90
1570;DHT22;778;50.120;8.698;2022-10-22T09:54:23;21.90;99.90
1570;DHT22;778;50.120;8.698;2022-10-22T09:56:56;22.10;99.90
1570;DHT22;778;50.120;8.698;2022-10-22T09:59:29;22.00;99.90
1570;DHT22;778;50.120;8.698;2022-10-22T10:02:01;21.90;99.90
1570;DHT22;778;50.120;8.698;2022-10-22T10:04:56;22.10;99.90
1570;DHT22;778;50.120;8.698;2022-10-22T10:07:26;22.40;99.90
1570;DHT22;778;50.120;8.698;2022-10-22T10:09:57;22.20;99.90
1570;DHT22;778;50.120;8.698;2022-10-22T10:12:34;22.00;99.90
1570;DHT22;778;50.120;8.698;2022-10-22T10:15:16;22.40;99.90
1570;DHT22;778;50.120;8.698;2022-10-22T10:17:55;22.50;99.90
1570;DHT22;778;50.120;8.698;2022-10-22T10:20:35;22.60;99.90
1570;DHT22;778;50.120;8.698;2022-10-22T10:23:16;22.60;99.90
1570;DHT22;778;50.120;8.698;2022-10-22T10:25:56;22.30;99.90
1570;DHT22;778;50.120;8.698;2022-10-22T10:28:48;22.80;99.90
1570;DHT22;778;50.120;8.698;2022-10-22T10:31:31;22.60;99.90
1570;DHT22;778;50.120;8.698;2022-10-22T10:34:17;22.80;99.90
1570;DHT22;778;50.120;8.698;2022-10-22T10:37:00;23.00;99.90
1570;DHT22;778;50.120;8.698;2022-10-22T10:39:38;23.00;99.90
1570;DHT22;778;50.120;8.698;2022-10-22T10:42:19;22.90;99.90
1570;DHT22;778;50.120;8.698;2022-10-22T10:44:58;23.10;99.90
1570;DHT22;778;50.120;8.698;2022-10-22T10:47:48;23.10;99.90
1570;DHT22;778;50.120;8.698;2022-10-22T10:50:42;23.00;99.90
1570;DHT22;778;50.120;8.698;2022-10-22T10:53:26;22.40;99.90
1570;DHT22;778;50.120;8.698;2022-10-22T10:56:08;22.00;99.90
1570;DHT22;778;50.120;8.698;2022-10-22T10:58:59;21.80;99.90
1570;DHT22;778;50.120;8.698;2022-10-22T11:01:41;21.30;99.90
1570;DHT22;778;50.120;8.698;2022-10-22T11:07:14;21.10;99.90
1570;DHT22;778;50.120;8.698;2022-10-22T11:10:07;21.00;99.90
1570;DHT22;778;50.120;8.698;2022-10-22T11:12:40;20.90;99.90
1570;DHT22;778;50.120;8.698;2022-10-22T11:15:25;20.60;99.90
1570;DHT22;778;50.120;8.698;2022-10-22T11:17:58;20.70;99.90
1570;DHT22;778;50.120;8.698;2022-10-22T11:20:38;20.80;99.90
1570;DHT22;778;50.120;8.698;2022-10-22T11:23:15;20.70;99.90
1570;DHT22;778;50.120;8.698;2022-10-22T11:25:49;20.60;99.90
1570;DHT22;778;50.120;8.698;2022-10-22T11:28:23;20.60;99.90
1570;DHT22;778;50.120;8.698;2022-10-22T11:30:59;20.50;99.90
1570;DHT22;778;50.120;8.698;2022-10-22T11:33:36;20.50;99.90
1570;DHT22;778;50.120;8.698;2022-10-22T11:36:12;20.60;99.90
1570;DHT22;778;50.120;8.698;2022-10-22T11:38:41;20.50;99.90
1570;DHT22;778;50.120;8.698;2022-10-22T11:41:13;20.40;99.90
1570;DHT22;778;50.120;8.698;2022-10-22T11:44:04;20.50;99.90
1570;DHT22;778;50.120;8.698;2022-10-22T11:46:43;20.40;99.90
1570;DHT22;778;50.120;8.698;2022-10-22T11:49:23;20.20;99.90
1570;DHT22;778;50.120;8.698;2022-10-22T11:52:21;20.30;99.90
1570;DHT22;778;50.120;8.698;2022-10-22T11:54:54;20.50;99.90
1570;DHT22;778;50.120;8.698;2022-10-22T11:57:34;20.50;99.90
